Time;durP1;ratioP1;P1;durP2;ratioP2;P2;SDS_P1;SDS_P2;PMS_P1;PMS_P2;Temp;Humidity;BMP_temperature;BMP_pressure;BME280_temperature;BME280_humidity;BME280_pressure;Samples;Min_cycle;Max_cycle;Signal;HPM_P1;HPM_P2
2021/05/25 00:01:07;;;;;;;1.97;1.50;;;;;;;;;;5051442;28;20893;-51
2021/05/25 00:03:33;;;;;;;1.37;1.20;;;;;;;;;;5051004;28;20742;-51
2021/05/25 00:05:59;;;;;;;2.13;1.50;;;;;;;;;;5051308;28;20416;-51
2021/05/25 00:08:25;;;;;;;3.43;1.40;;;;;;;;;;5051201;28;20568;-51
2021/05/25 00:10:51;;;;;;;2.17;1.20;;;;;;;;;;5051311;28;20405;-51
2021/05/25 00:13:17;;;;;;;1.50;1.40;;;;;;;;;;5051033;28;20485;-51
2021/05/25 00:15:43;;;;;;;2.40;1.40;;;;;;;;;;5051013;28;20452;-52
2021/05/25 00:18:09;;;;;;;1.40;1.30;;;;;;;;;;5050192;28;20424;-51
2021/05/25 00:20:36;;;;;;;2.10;1.43;;;;;;;;;;5050960;28;20397;-51
2021/05/25 00:23:02;;;;;;;1.97;1.83;;;;;;;;;;5050859;28;20480;-51
2021/05/25 00:25:31;;;;;;;2.17;1.40;;;;;;;;;;5050945;28;20495;-51
2021/05/25 00:27:57;;;;;;;1.23;1.13;;;;;;;;;;5051076;28;20417;-52
2021/05/25 00:30:23;;;;;;;1.40;1.30;;;;;;;;;;5050864;28;20447;-51
2021/05/25 00:32:50;;;;;;;2.33;1.40;;;;;;;;;;5050886;28;20480;-51
2021/05/25 00:35:17;;;;;;;1.53;1.20;;;;;;;;;;5051038;28;20500;-52
2021/05/25 00:37:43;;;;;;;1.30;1.20;;;;;;;;;;5051077;28;20422;-51
2021/05/25 00:40:10;;;;;;;2.10;1.27;;;;;;;;;;5051265;28;20397;-51
2021/05/25 00:42:37;;;;;;;1.33;1.10;;;;;;;;;;5050610;28;20433;-51
2021/05/25 00:45:04;;;;;;;2.50;1.40;;;;;;;;;;5050898;28;20784;-51
2021/05/25 00:47:30;;;;;;;1.40;1.30;;;;;;;;;;5050391;28;20445;-50
2021/05/25 00:50:09;;;;;;;1.07;1.07;;;;;;;;;;5050833;28;20440;-51
2021/05/25 00:52:41;;;;;;;4.43;1.87;;;;;;;;;;5050454;28;20438;-51
2021/05/25 00:55:09;;;;;;;1.43;1.20;;;;;;;;;;5050617;28;20540;-51
2021/05/25 00:57:36;;;;;;;1.30;1.20;;;;;;;;;;5050445;28;20417;-51
2021/05/25 01:00:09;;;;;;;2.67;2.03;;;;;;;;;;5049302;28;20402;-52
2021/05/25 01:02:35;;;;;;;1.53;1.20;;;;;;;;;;5049277;28;20397;-51
2021/05/25 01:05:01;;;;;;;1.10;1.00;;;;;;;;;;5050009;28;20408;-51
2021/05/25 01:07:27;;;;;;;2.60;1.40;;;;;;;;;;5050223;28;20492;-50
2021/05/25 01:09:55;;;;;;;1.27;1.17;;;;;;;;;;5050359;28;20409;-52
2021/05/25 01:12:23;;;;;;;2.87;1.23;;;;;;;;;;5050275;28;20432;-51
2021/05/25 01:14:56;;;;;;;1.80;1.70;;;;;;;;;;5050149;28;20457;-51
2021/05/25 01:17:23;;;;;;;1.87;1.47;;;;;;;;;;5050709;28;20454;-51
2021/05/25 01:19:49;;;;;;;1.40;1.30;;;;;;;;;;5050384;28;20760;-51
2021/05/25 01:22:15;;;;;;;3.60;1.40;;;;;;;;;;5050229;28;20404;-51
2021/05/25 01:24:41;;;;;;;2.30;1.50;;;;;;;;;;5050296;28;20398;-51
2021/05/25 01:27:07;;;;;;;1.93;1.30;;;;;;;;;;5050210;28;21055;-50
2021/05/25 01:29:34;;;;;;;1.77;1.40;;;;;;;;;;5052781;28;20409;-51
2021/05/25 01:32:00;;;;;;;1.40;1.30;;;;;;;;;;5054111;28;20397;-51
2021/05/25 01:34:26;;;;;;;2.40;2.27;;;;;;;;;;5054088;28;20881;-52
2021/05/25 01:36:52;;;;;;;1.87;1.30;;;;;;;;;;5054108;28;20411;-50
2021/05/25 01:39:18;;;;;;;1.57;1.47;;;;;;;;;;5054079;28;20486;-50
2021/05/25 01:41:44;;;;;;;2.40;1.57;;;;;;;;;;5053648;28;20405;-51
2021/05/25 01:44:10;;;;;;;7.13;1.33;;;;;;;;;;5069338;28;20977;-51
2021/05/25 01:46:43;;;;;;;12.67;1.70;;;;;;;;;;5054094;28;20432;-51
2021/05/25 01:49:09;;;;;;;3.37;1.50;;;;;;;;;;5053976;28;20421;-52
2021/05/25 01:51:35;;;;;;;1.60;1.20;;;;;;;;;;5053639;28;20397;-50
2021/05/25 01:54:01;;;;;;;1.53;1.30;;;;;;;;;;5053869;28;20458;-51
2021/05/25 01:56:27;;;;;;;1.50;1.20;;;;;;;;;;5053557;28;20565;-50
2021/05/25 01:58:53;;;;;;;2.60;1.20;;;;;;;;;;5069170;28;20460;-51
2021/05/25 02:01:19;;;;;;;2.37;1.50;;;;;;;;;;5053660;28;20401;-51
2021/05/25 02:03:45;;;;;;;1.20;1.10;;;;;;;;;;5053812;28;20798;-52
2021/05/25 02:06:11;;;;;;;1.40;1.30;;;;;;;;;;5053733;28;20947;-51
2021/05/25 02:08:39;;;;;;;2.30;1.37;;;;;;;;;;5053330;28;20833;-51
2021/05/25 02:11:08;;;;;;;0.93;0.93;;;;;;;;;;5053812;28;20428;-50
2021/05/25 02:13:34;;;;;;;7.50;2.00;;;;;;;;;;5053125;28;20889;-51
2021/05/25 02:16:01;;;;;;;1.43;1.33;;;;;;;;;;5053488;28;20444;-50
2021/05/25 02:18:29;;;;;;;1.10;1.10;;;;;;;;;;5053498;28;20811;-51
2021/05/25 02:20:56;;;;;;;2.33;1.33;;;;;;;;;;5053467;28;20420;-51
2021/05/25 02:23:22;;;;;;;1.90;1.40;;;;;;;;;;5053020;28;20437;-50
2021/05/25 02:25:48;;;;;;;1.30;1.20;;;;;;;;;;5053615;28;20433;-51
2021/05/25 02:28:14;;;;;;;1.50;1.40;;;;;;;;;;5053229;28;20440;-51
2021/05/25 02:30:41;;;;;;;3.53;1.50;;;;;;;;;;5053278;28;21039;-50
2021/05/25 02:33:10;;;;;;;1.83;1.40;;;;;;;;;;5052988;28;20405;-51
2021/05/25 02:35:36;;;;;;;2.10;1.80;;;;;;;;;;5053105;28;20465;-51
2021/05/25 02:38:03;;;;;;;1.83;1.10;;;;;;;;;;5052962;28;20459;-51
2021/05/25 02:40:30;;;;;;;2.50;1.70;;;;;;;;;;5051959;28;20401;-50
2021/05/25 02:42:57;;;;;;;2.70;1.40;;;;;;;;;;5052859;28;20401;-51
2021/05/25 02:45:23;;;;;;;1.43;1.33;;;;;;;;;;5053010;28;20928;-52
2021/05/25 02:47:49;;;;;;;2.77;1.37;;;;;;;;;;5053097;28;20445;-51
2021/05/25 02:50:15;;;;;;;1.67;1.20;;;;;;;;;;5053057;28;20402;-51
2021/05/25 02:52:45;;;;;;;3.63;1.17;;;;;;;;;;5052786;28;20409;-52
2021/05/25 02:55:13;;;;;;;4.27;1.80;;;;;;;;;;5052751;28;20818;-51
2021/05/25 02:57:39;;;;;;;1.30;1.07;;;;;;;;;;5052702;28;20937;-51
2021/05/25 03:00:05;;;;;;;2.10;1.10;;;;;;;;;;5052203;28;20485;-51
2021/05/25 03:02:31;;;;;;;3.63;2.30;;;;;;;;;;5051573;28;20403;-51
2021/05/25 03:04:57;;;;;;;2.60;1.40;;;;;;;;;;5052582;28;20840;-51
2021/05/25 03:07:23;;;;;;;1.73;1.30;;;;;;;;;;5052302;28;20436;-51
2021/05/25 03:09:49;;;;;;;1.43;1.20;;;;;;;;;;5052453;28;20416;-51
2021/05/25 03:12:15;;;;;;;1.33;1.20;;;;;;;;;;5051888;28;20402;-52
2021/05/25 03:14:42;;;;;;;3.87;1.50;;;;;;;;;;5052280;28;20453;-51
2021/05/25 03:17:08;;;;;;;1.30;1.20;;;;;;;;;;5052182;28;20397;-51
2021/05/25 03:19:34;;;;;;;2.17;1.40;;;;;;;;;;5052229;28;20937;-51
2021/05/25 03:22:00;;;;;;;4.50;1.60;;;;;;;;;;5051965;28;20428;-51
2021/05/25 03:24:25;;;;;;;1.33;1.23;;;;;;;;;;5052226;28;20397;-51
2021/05/25 03:26:52;;;;;;;3.00;1.30;;;;;;;;;;5052054;28;20952;-51
2021/05/25 03:29:18;;;;;;;1.17;1.07;;;;;;;;;;5052101;28;20454;-51
2021/05/25 03:31:45;;;;;;;1.10;1.00;;;;;;;;;;5051871;28;20393;-50
2021/05/25 03:34:11;;;;;;;5.20;1.30;;;;;;;;;;5051782;28;20882;-50
2021/05/25 03:36:37;;;;;;;1.40;1.30;;;;;;;;;;5052002;28;20548;-51
2021/05/25 03:39:04;;;;;;;1.10;0.90;;;;;;;;;;5051674;28;20482;-51
2021/05/25 03:41:30;;;;;;;6.60;1.23;;;;;;;;;;5051693;28;20475;-50
2021/05/25 03:43:57;;;;;;;1.93;1.13;;;;;;;;;;5051664;28;20401;-51
2021/05/25 03:46:23;;;;;;;2.70;1.30;;;;;;;;;;5051595;28;20409;-51
2021/05/25 03:48:49;;;;;;;3.43;1.40;;;;;;;;;;5051737;28;20448;-51
2021/05/25 03:51:15;;;;;;;1.87;1.13;;;;;;;;;;5051388;28;20459;-52
2021/05/25 03:53:41;;;;;;;2.20;1.10;;;;;;;;;;5051559;28;20938;-51
2021/05/25 03:58:53;;;;;;;1.20;1.20;;;;;;;;;;5051774;28;20455;-52
2021/05/25 04:01:23;;;;;;;2.40;1.00;;;;;;;;;;5051336;28;20508;-52
2021/05/25 04:03:50;;;;;;;1.53;1.37;;;;;;;;;;5051595;28;20889;-52
2021/05/25 04:06:16;;;;;;;1.30;1.20;;;;;;;;;;5051171;28;20405;-50
2021/05/25 04:08:42;;;;;;;1.40;1.30;;;;;;;;;;5066815;28;20436;-50
2021/05/25 04:11:08;;;;;;;1.33;1.23;;;;;;;;;;5051215;28;20401;-51
2021/05/25 04:13:34;;;;;;;3.13;1.50;;;;;;;;;;5051094;28;20893;-51
2021/05/25 04:16:00;;;;;;;1.20;1.10;;;;;;;;;;5051088;28;20448;-50
2021/05/25 04:18:26;;;;;;;1.30;1.20;;;;;;;;;;5051166;28;20752;-51
2021/05/25 04:20:52;;;;;;;1.90;1.00;;;;;;;;;;5051064;28;20424;-51
2021/05/25 04:23:19;;;;;;;1.30;1.30;;;;;;;;;;5050896;28;20397;-50
2021/05/25 04:25:45;;;;;;;1.73;1.30;;;;;;;;;;5051067;28;21070;-51
2021/05/25 04:28:11;;;;;;;1.20;1.10;;;;;;;;;;5050832;28;20944;-52
2021/05/25 04:30:38;;;;;;;2.00;1.10;;;;;;;;;;5050935;28;20401;-51
2021/05/25 04:33:04;;;;;;;1.03;1.03;;;;;;;;;;5050599;28;20420;-51
2021/05/25 04:35:30;;;;;;;1.30;1.20;;;;;;;;;;5050767;28;20441;-51
2021/05/25 04:37:58;;;;;;;2.27;1.10;;;;;;;;;;5050841;28;20426;-51
2021/05/25 04:40:24;;;;;;;2.40;1.50;;;;;;;;;;5050752;28;20912;-52
2021/05/25 04:42:50;;;;;;;2.30;1.20;;;;;;;;;;5050356;28;20398;-52
2021/05/25 04:45:16;;;;;;;1.40;1.30;;;;;;;;;;5050820;28;20483;-51
2021/05/25 04:47:42;;;;;;;1.43;1.20;;;;;;;;;;5050172;28;20866;-52
2021/05/25 04:50:09;;;;;;;1.77;1.50;;;;;;;;;;5050108;28;20917;-52
2021/05/25 04:52:35;;;;;;;2.60;1.47;;;;;;;;;;5049979;28;20397;-51
2021/05/25 04:55:03;;;;;;;1.40;1.30;;;;;;;;;;5065216;28;20449;-51
2021/05/25 04:57:30;;;;;;;1.10;1.00;;;;;;;;;;5050122;28;20425;-51
2021/05/25 04:59:56;;;;;;;1.33;1.23;;;;;;;;;;5049798;28;20503;-51
2021/05/25 05:02:22;;;;;;;2.13;1.20;;;;;;;;;;5049733;28;20402;-51
2021/05/25 05:04:48;;;;;;;1.53;1.33;;;;;;;;;;5055751;28;20438;-51
2021/05/25 05:07:14;;;;;;;1.40;1.30;;;;;;;;;;5056602;28;20448;-51
2021/05/25 05:09:40;;;;;;;3.80;1.67;;;;;;;;;;5056305;28;20440;-51
2021/05/25 05:12:06;;;;;;;1.83;1.70;;;;;;;;;;5056480;28;20405;-51
2021/05/25 05:14:33;;;;;;;1.53;1.40;;;;;;;;;;5056289;28;20401;-51
2021/05/25 05:16:58;;;;;;;1.77;1.40;;;;;;;;;;5056276;28;20401;-51
2021/05/25 05:19:25;;;;;;;1.87;1.60;;;;;;;;;;5056562;28;20904;-52
2021/05/25 05:21:51;;;;;;;1.90;1.80;;;;;;;;;;5056021;28;20408;-51
2021/05/25 05:24:17;;;;;;;1.63;1.43;;;;;;;;;;5056725;28;20400;-52
2021/05/25 05:26:43;;;;;;;2.23;1.63;;;;;;;;;;5056852;28;20883;-52
2021/05/25 05:29:09;;;;;;;2.43;1.40;;;;;;;;;;5056579;28;20934;-51
2021/05/25 05:31:35;;;;;;;2.13;1.40;;;;;;;;;;5056298;28;20500;-53
2021/05/25 05:34:01;;;;;;;1.87;1.50;;;;;;;;;;5057085;28;20410;-52
2021/05/25 05:36:27;;;;;;;1.60;1.50;;;;;;;;;;5056884;28;20504;-53
2021/05/25 05:38:53;;;;;;;1.50;1.40;;;;;;;;;;5057348;28;20452;-52
2021/05/25 05:41:19;;;;;;;2.73;1.63;;;;;;;;;;5057280;28;20405;-51
2021/05/25 05:43:45;;;;;;;1.97;1.73;;;;;;;;;;5057513;28;20424;-51
2021/05/25 05:46:11;;;;;;;5.20;1.90;;;;;;;;;;5057615;28;20901;-50
2021/05/25 05:48:37;;;;;;;2.20;2.00;;;;;;;;;;5057400;28;20952;-50
2021/05/25 05:51:03;;;;;;;2.03;1.67;;;;;;;;;;5057757;28;20507;-51
2021/05/25 05:53:29;;;;;;;1.63;1.53;;;;;;;;;;5057339;28;20480;-51
2021/05/25 05:55:55;;;;;;;1.70;1.60;;;;;;;;;;5057218;28;20452;-50
2021/05/25 05:58:21;;;;;;;2.63;2.00;;;;;;;;;;5057099;28;21133;-51
2021/05/25 06:00:47;;;;;;;2.03;1.80;;;;;;;;;;5056937;28;20399;-52
2021/05/25 06:03:13;;;;;;;2.10;2.00;;;;;;;;;;5056785;28;21038;-51
2021/05/25 06:05:39;;;;;;;2.20;2.00;;;;;;;;;;5056875;28;20491;-51
2021/05/25 06:08:05;;;;;;;2.07;1.97;;;;;;;;;;5057103;28;20900;-51
2021/05/25 06:10:33;;;;;;;3.43;1.93;;;;;;;;;;5057345;28;20508;-50
2021/05/25 06:12:59;;;;;;;2.67;2.00;;;;;;;;;;5056954;28;20894;-51
2021/05/25 06:15:25;;;;;;;3.23;2.30;;;;;;;;;;5055053;28;20975;-50
2021/05/25 06:17:51;;;;;;;2.10;2.00;;;;;;;;;;5054037;28;20413;-51
2021/05/25 06:20:18;;;;;;;2.27;2.10;;;;;;;;;;5053998;28;20909;-51
2021/05/25 06:22:44;;;;;;;2.40;2.20;;;;;;;;;;5053445;28;20433;-52
2021/05/25 06:25:11;;;;;;;2.07;1.93;;;;;;;;;;5053800;28;20463;-51
2021/05/25 06:27:37;;;;;;;1.90;1.80;;;;;;;;;;5053888;28;20965;-52
2021/05/25 06:30:04;;;;;;;2.60;1.90;;;;;;;;;;5068908;28;20414;-52
2021/05/25 06:32:30;;;;;;;3.80;1.80;;;;;;;;;;5053471;28;20405;-52
2021/05/25 06:34:56;;;;;;;3.80;1.77;;;;;;;;;;5053637;28;20449;-52
2021/05/25 06:37:22;;;;;;;2.87;2.30;;;;;;;;;;5053334;28;20421;-52
2021/05/25 06:39:48;;;;;;;3.63;1.80;;;;;;;;;;5053544;28;20917;-50
2021/05/25 06:42:14;;;;;;;1.73;1.63;;;;;;;;;;5052714;28;20408;-50
2021/05/25 06:44:40;;;;;;;1.70;1.60;;;;;;;;;;5053139;28;20404;-51
2021/05/25 06:47:06;;;;;;;2.60;1.70;;;;;;;;;;5053011;28;20919;-52
2021/05/25 06:49:32;;;;;;;1.70;1.57;;;;;;;;;;5053139;28;20405;-50
2021/05/25 06:51:59;;;;;;;2.57;1.60;;;;;;;;;;5052767;28;20405;-50
2021/05/25 06:54:25;;;;;;;1.60;1.50;;;;;;;;;;5053208;28;20413;-51
2021/05/25 06:56:51;;;;;;;2.30;1.50;;;;;;;;;;5053367;28;20398;-52
2021/05/25 06:59:17;;;;;;;1.80;1.70;;;;;;;;;;5053223;28;20827;-52
2021/05/25 07:01:43;;;;;;;2.40;1.40;;;;;;;;;;5052865;28;20424;-50
2021/05/25 07:04:09;;;;;;;1.70;1.60;;;;;;;;;;5052846;28;20451;-51
2021/05/25 07:06:35;;;;;;;2.00;1.80;;;;;;;;;;5052868;28;20771;-51
2021/05/25 07:09:02;;;;;;;1.93;1.73;;;;;;;;;;5052830;28;20470;-52
2021/05/25 07:11:28;;;;;;;1.90;1.80;;;;;;;;;;5052781;28;20401;-52
2021/05/25 07:13:55;;;;;;;1.50;1.40;;;;;;;;;;5052693;28;20622;-50
2021/05/25 07:16:21;;;;;;;1.83;1.73;;;;;;;;;;5051878;28;20468;-53
2021/05/25 07:18:47;;;;;;;2.27;2.07;;;;;;;;;;5052682;28;20456;-52
2021/05/25 07:21:13;;;;;;;2.70;1.80;;;;;;;;;;5052625;28;20406;-51
2021/05/25 07:23:39;;;;;;;1.70;1.60;;;;;;;;;;5052473;28;20438;-50
2021/05/25 07:26:05;;;;;;;1.83;1.50;;;;;;;;;;5051834;28;20416;-50
2021/05/25 07:28:31;;;;;;;1.60;1.37;;;;;;;;;;5052319;28;20436;-51
2021/05/25 07:30:57;;;;;;;2.60;1.40;;;;;;;;;;5052295;28;20950;-51
2021/05/25 07:33:24;;;;;;;2.03;1.50;;;;;;;;;;5052138;28;20462;-50
2021/05/25 07:35:50;;;;;;;1.70;1.60;;;;;;;;;;5051875;28;20453;-50
2021/05/25 07:38:16;;;;;;;1.63;1.53;;;;;;;;;;5052193;28;20413;-51
2021/05/25 07:40:42;;;;;;;2.20;1.33;;;;;;;;;;5052121;28;20401;-51
2021/05/25 07:43:09;;;;;;;1.23;1.23;;;;;;;;;;5051819;28;20397;-50
2021/05/25 07:45:36;;;;;;;1.40;1.30;;;;;;;;;;5052239;28;20406;-51
2021/05/25 07:48:02;;;;;;;2.33;1.40;;;;;;;;;;5048776;28;20456;-50
2021/05/25 07:50:28;;;;;;;1.30;1.20;;;;;;;;;;5051555;28;20428;-50
2021/05/25 07:52:55;;;;;;;1.63;1.53;;;;;;;;;;5051664;28;20420;-51
2021/05/25 07:55:23;;;;;;;1.63;1.53;;;;;;;;;;5051865;28;20476;-50
2021/05/25 07:57:49;;;;;;;1.60;1.50;;;;;;;;;;5051668;28;20429;-51
2021/05/25 08:00:16;;;;;;;1.70;1.60;;;;;;;;;;5051676;28;20877;-50
2021/05/25 08:02:43;;;;;;;1.80;1.70;;;;;;;;;;5051268;28;20397;-50
2021/05/25 08:05:09;;;;;;;2.33;2.10;;;;;;;;;;5051567;28;21121;-51
2021/05/25 08:07:35;;;;;;;1.70;1.60;;;;;;;;;;5051494;28;20417;-51
2021/05/25 08:10:03;;;;;;;1.83;1.73;;;;;;;;;;5051320;28;20488;-52
2021/05/25 08:12:29;;;;;;;2.33;1.63;;;;;;;;;;5051345;28;20401;-51
2021/05/25 08:14:57;;;;;;;2.00;1.80;;;;;;;;;;5051442;28;20445;-50
2021/05/25 08:17:41;;;;;;;6.80;2.03;;;;;;;;;;5051630;28;20811;-52
2021/05/25 08:20:17;;;;;;;1.80;1.70;;;;;;;;;;5051513;28;20397;-52
2021/05/25 08:22:44;;;;;;;5.27;2.20;;;;;;;;;;5051416;28;20380;-51
2021/05/25 08:25:11;;;;;;;4.90;1.83;;;;;;;;;;5051491;28;20401;-51
2021/05/25 08:27:37;;;;;;;2.87;2.20;;;;;;;;;;5051368;28;20487;-51
2021/05/25 08:30:04;;;;;;;3.10;2.23;;;;;;;;;;5051243;28;20481;-51
2021/05/25 08:32:30;;;;;;;2.27;2.07;;;;;;;;;;5051093;28;20440;-52
2021/05/25 08:34:56;;;;;;;2.50;2.30;;;;;;;;;;5050932;28;20504;-52
2021/05/25 08:37:22;;;;;;;1.90;1.80;;;;;;;;;;5049607;28;20418;-53
2021/05/25 08:39:48;;;;;;;2.03;1.93;;;;;;;;;;5050517;28;20402;-51
2021/05/25 08:42:14;;;;;;;2.40;2.30;;;;;;;;;;5051055;28;20405;-51
2021/05/25 08:44:40;;;;;;;2.20;2.10;;;;;;;;;;5051171;28;20409;-51
2021/05/25 08:47:07;;;;;;;2.63;2.23;;;;;;;;;;5051254;28;20434;-51
2021/05/25 08:49:36;;;;;;;2.20;2.03;;;;;;;;;;5055160;28;20415;-53
2021/05/25 08:52:06;;;;;;;2.60;2.40;;;;;;;;;;5050745;28;20405;-51
2021/05/25 08:54:32;;;;;;;3.33;3.13;;;;;;;;;;5051141;28;20814;-51
2021/05/25 08:56:58;;;;;;;3.20;3.00;;;;;;;;;;5050808;28;20456;-51
2021/05/25 08:59:24;;;;;;;3.77;3.47;;;;;;;;;;5051132;28;20406;-50
2021/05/25 09:01:50;;;;;;;3.60;2.60;;;;;;;;;;5050726;28;20501;-51
2021/05/25 09:04:17;;;;;;;3.47;2.50;;;;;;;;;;5051200;28;20957;-51
2021/05/25 09:06:44;;;;;;;3.57;3.33;;;;;;;;;;5051016;28;20409;-50
2021/05/25 09:09:12;;;;;;;2.80;2.63;;;;;;;;;;5051213;28;20422;-50
2021/05/25 09:11:58;;;;;;;3.40;2.67;;;;;;;;;;5049581;28;20403;-51
2021/05/25 09:14:25;;;;;;;2.57;2.47;;;;;;;;;;5064602;28;20424;-51
2021/05/25 09:16:51;;;;;;;2.90;2.77;;;;;;;;;;5050717;28;20409;-51
2021/05/25 09:19:17;;;;;;;3.33;3.13;;;;;;;;;;5050305;28;20501;-52
2021/05/25 09:21:43;;;;;;;3.70;3.50;;;;;;;;;;5050769;28;20406;-51
2021/05/25 09:24:09;;;;;;;4.70;3.80;;;;;;;;;;5050727;28;20395;-51
2021/05/25 09:26:40;;;;;;;4.60;4.30;;;;;;;;;;5051093;28;20396;-51
2021/05/25 09:29:07;;;;;;;5.97;5.40;;;;;;;;;;5050758;28;20421;-50
2021/05/25 09:31:36;;;;;;;5.83;5.43;;;;;;;;;;5050856;28;20777;-51
2021/05/25 09:34:11;;;;;;;5.60;5.13;;;;;;;;;;5065009;28;20419;-50
2021/05/25 09:36:55;;;;;;;5.10;4.80;;;;;;;;;;5050594;28;20508;-51
2021/05/25 09:39:21;;;;;;;3.93;3.63;;;;;;;;;;5050440;28;20417;-50
2021/05/25 09:42:03;;;;;;;3.47;2.50;;;;;;;;;;5050111;28;20519;-50
2021/05/25 09:44:30;;;;;;;2.80;2.60;;;;;;;;;;5050379;28;20407;-51
2021/05/25 09:47:01;;;;;;;5.30;2.80;;;;;;;;;;5050313;28;20934;-50
2021/05/25 09:49:27;;;;;;;3.37;3.07;;;;;;;;;;5051397;28;20403;-52
2021/05/25 09:52:12;;;;;;;3.37;3.03;;;;;;;;;;5054400;28;20401;-51
2021/05/25 09:54:38;;;;;;;3.43;3.17;;;;;;;;;;5054072;28;20402;-50
2021/05/25 09:57:05;;;;;;;3.80;3.50;;;;;;;;;;5054163;28;20507;-50
2021/05/25 09:59:31;;;;;;;3.77;3.47;;;;;;;;;;5054262;28;20404;-50
2021/05/25 10:02:14;;;;;;;9.90;3.87;;;;;;;;;;5053983;28;20382;-50
2021/05/25 10:04:57;;;;;;;5.40;4.30;;;;;;;;;;5054214;28;20399;-51
2021/05/25 10:07:24;;;;;;;3.50;3.30;;;;;;;;;;5054280;28;20425;-51
2021/05/25 10:09:50;;;;;;;3.70;3.40;;;;;;;;;;5054150;28;20873;-50
2021/05/25 10:12:16;;;;;;;3.23;3.13;;;;;;;;;;5053631;28;20405;-50
2021/05/25 10:14:43;;;;;;;4.20;3.83;;;;;;;;;;5053844;28;20439;-50
2021/05/25 10:17:17;;;;;;;3.63;3.33;;;;;;;;;;5053214;28;20853;-50
2021/05/25 10:19:43;;;;;;;4.30;3.90;;;;;;;;;;5054211;28;20397;-51
2021/05/25 10:22:09;;;;;;;5.47;3.43;;;;;;;;;;5053577;28;21099;-51
2021/05/25 10:24:35;;;;;;;3.73;3.37;;;;;;;;;;5053578;28;20404;-51
2021/05/25 10:27:01;;;;;;;3.47;3.17;;;;;;;;;;5053778;28;20401;-51
2021/05/25 10:29:27;;;;;;;3.27;3.10;;;;;;;;;;5053589;28;20413;-52
2021/05/25 10:31:58;;;;;;;3.53;3.33;;;;;;;;;;5053654;28;20429;-52
2021/05/25 10:34:30;;;;;;;3.60;3.37;;;;;;;;;;5053628;28;20409;-50
2021/05/25 10:36:58;;;;;;;4.57;4.10;;;;;;;;;;5053718;28;20405;-50
2021/05/25 10:39:33;;;;;;;3.50;3.20;;;;;;;;;;5053104;28;20422;-50
2021/05/25 10:42:14;;;;;;;3.57;3.33;;;;;;;;;;5053200;28;20430;-51
2021/05/25 10:44:57;;;;;;;3.70;3.50;;;;;;;;;;5053585;28;20397;-50
2021/05/25 10:47:26;;;;;;;3.53;3.23;;;;;;;;;;5053282;28;20487;-50
2021/05/25 10:49:57;;;;;;;4.10;1.83;;;;;;;;;;5053018;28;20486;-50
2021/05/25 10:52:23;;;;;;;2.13;1.87;;;;;;;;;;5053023;28;20395;-50
2021/05/25 10:54:50;;;;;;;2.40;1.93;;;;;;;;;;5053335;28;20933;-50
2021/05/25 10:57:30;;;;;;;2.10;1.90;;;;;;;;;;5053089;28;20422;-53
2021/05/25 11:00:12;;;;;;;4.67;2.33;;;;;;;;;;5053319;28;20401;-49
2021/05/25 11:02:48;;;;;;;3.00;2.07;;;;;;;;;;5050791;28;20971;-52
2021/05/25 11:05:37;;;;;;;5.07;2.87;;;;;;;;;;5051704;28;20426;-51
2021/05/25 11:08:10;;;;;;;2.90;2.30;;;;;;;;;;5044667;28;20476;-50
2021/05/25 11:10:41;;;;;;;3.00;2.60;;;;;;;;;;5052963;28;20493;-51
2021/05/25 11:13:16;;;;;;;2.87;2.67;;;;;;;;;;5052382;28;20460;-51
2021/05/25 11:16:01;;;;;;;3.70;2.47;;;;;;;;;;5052570;28;20963;-50
2021/05/25 11:18:35;;;;;;;3.87;2.87;;;;;;;;;;5052677;28;20525;-51
2021/05/25 11:23:51;;;;;;;3.93;2.97;;;;;;;;;;5052413;28;20440;-51
2021/05/25 11:26:36;;;;;;;3.30;2.80;;;;;;;;;;5052872;28;20390;-51
2021/05/25 11:29:14;;;;;;;3.80;3.50;;;;;;;;;;5051914;28;20483;-50
2021/05/25 11:31:40;;;;;;;2.87;2.67;;;;;;;;;;5051920;28;20405;-50
2021/05/25 11:34:07;;;;;;;3.97;2.90;;;;;;;;;;5051795;28;20411;-50
2021/05/25 11:36:34;;;;;;;11.40;3.93;;;;;;;;;;5052011;28;20559;-52
2021/05/25 11:39:01;;;;;;;3.27;3.07;;;;;;;;;;5051841;28;20447;-53
2021/05/25 11:41:27;;;;;;;3.47;1.87;;;;;;;;;;5052062;28;20443;-53
2021/05/25 11:44:06;;;;;;;1.70;1.60;;;;;;;;;;5051636;28;20764;-53
2021/05/25 11:46:43;;;;;;;7.50;4.03;;;;;;;;;;5052003;28;20770;-52
2021/05/25 11:49:10;;;;;;;2.10;2.00;;;;;;;;;;5051670;28;20485;-53
2021/05/25 11:51:37;;;;;;;2.20;2.10;;;;;;;;;;5051377;28;20500;-53
2021/05/25 11:54:10;;;;;;;2.20;2.10;;;;;;;;;;5051777;28;20401;-53
2021/05/25 11:56:36;;;;;;;2.47;2.03;;;;;;;;;;5051597;28;20952;-53
2021/05/25 11:59:02;;;;;;;2.63;2.30;;;;;;;;;;5051599;28;20409;-53
2021/05/25 12:01:41;;;;;;;4.10;3.80;;;;;;;;;;5051447;28;20420;-53
2021/05/25 12:04:08;;;;;;;3.07;2.73;;;;;;;;;;5051422;28;20478;-53
2021/05/25 12:06:34;;;;;;;4.13;3.33;;;;;;;;;;5051294;28;20492;-53
2021/05/25 12:09:07;;;;;;;5.33;4.73;;;;;;;;;;5051291;28;20897;-53
2021/05/25 12:11:36;;;;;;;4.93;4.40;;;;;;;;;;5050973;28;20503;-53
2021/05/25 12:14:02;;;;;;;7.10;6.20;;;;;;;;;;5050944;28;20409;-53
2021/05/25 12:16:28;;;;;;;12.00;7.57;;;;;;;;;;5051019;28;20951;-53
2021/05/25 12:18:54;;;;;;;9.43;7.47;;;;;;;;;;5051248;28;20548;-53
2021/05/25 12:21:21;;;;;;;10.27;8.63;;;;;;;;;;5051001;28;20402;-53
2021/05/25 12:23:47;;;;;;;14.53;9.57;;;;;;;;;;5051049;28;20411;-53
2021/05/25 12:26:13;;;;;;;9.53;8.00;;;;;;;;;;5051067;28;20403;-53
2021/05/25 12:28:39;;;;;;;8.83;6.70;;;;;;;;;;5051056;28;20448;-53
2021/05/25 12:31:07;;;;;;;7.40;6.70;;;;;;;;;;5051064;28;20416;-53
2021/05/25 12:33:35;;;;;;;7.77;6.90;;;;;;;;;;5050920;28;20459;-54
2021/05/25 12:36:21;;;;;;;8.00;7.20;;;;;;;;;;5051036;28;20479;-53
2021/05/25 12:38:57;;;;;;;8.40;7.60;;;;;;;;;;5050620;28;20412;-53
2021/05/25 12:41:23;;;;;;;9.13;7.00;;;;;;;;;;5050847;28;20405;-53
2021/05/25 12:43:49;;;;;;;10.93;7.80;;;;;;;;;;5050868;28;20476;-53
2021/05/25 12:46:15;;;;;;;9.60;6.27;;;;;;;;;;5050695;28;20372;-53
2021/05/25 12:48:42;;;;;;;9.60;6.33;;;;;;;;;;5050620;28;20404;-53
2021/05/25 12:51:09;;;;;;;9.23;5.80;;;;;;;;;;5050617;28;20476;-53
2021/05/25 12:53:49;;;;;;;6.77;6.10;;;;;;;;;;5050415;28;20455;-53
2021/05/25 12:56:17;;;;;;;9.63;7.00;;;;;;;;;;5050413;28;20928;-53
2021/05/25 12:58:44;;;;;;;6.77;6.07;;;;;;;;;;5050532;28;20429;-53
2021/05/25 13:01:20;;;;;;;4.70;3.77;;;;;;;;;;5050408;28;20886;-53
2021/05/25 13:03:46;;;;;;;3.33;3.03;;;;;;;;;;5050199;28;20453;-53
2021/05/25 13:06:15;;;;;;;8.57;2.63;;;;;;;;;;5050371;28;20408;-53
2021/05/25 13:08:44;;;;;;;5.03;2.83;;;;;;;;;;5050431;28;20842;-53
2021/05/25 13:11:11;;;;;;;7.93;3.10;;;;;;;;;;5050061;28;20765;-53
2021/05/25 13:13:41;;;;;;;13.90;3.67;;;;;;;;;;5052053;28;20425;-53
2021/05/25 13:16:18;;;;;;;4.60;3.77;;;;;;;;;;5048893;28;20465;-52
2021/05/25 13:18:45;;;;;;;3.87;3.40;;;;;;;;;;5050213;28;20486;-53
2021/05/25 13:21:13;;;;;;;4.77;3.80;;;;;;;;;;5050377;28;20873;-52
2021/05/25 13:23:39;;;;;;;6.73;4.83;;;;;;;;;;5049979;28;20398;-52
2021/05/25 13:26:24;;;;;;;4.27;3.87;;;;;;;;;;5054053;28;20406;-52
2021/05/25 13:28:54;;;;;;;5.33;4.93;;;;;;;;;;5054325;28;20499;-53
2021/05/25 13:31:24;;;;;;;5.40;4.40;;;;;;;;;;5054285;28;20413;-53
2021/05/25 13:33:51;;;;;;;7.53;5.47;;;;;;;;;;5054571;28;20801;-53
2021/05/25 13:36:17;;;;;;;6.60;5.20;;;;;;;;;;5053852;28;20455;-52
2021/05/25 13:38:47;;;;;;;8.40;5.67;;;;;;;;;;5052868;28;20894;-53
2021/05/25 13:41:14;;;;;;;5.27;4.80;;;;;;;;;;5054228;28;20398;-55
2021/05/25 13:43:42;;;;;;;8.80;5.87;;;;;;;;;;5052780;28;20437;-52
2021/05/25 13:46:09;;;;;;;5.73;5.20;;;;;;;;;;5054832;28;20401;-52
2021/05/25 13:48:35;;;;;;;5.37;4.57;;;;;;;;;;5052643;28;20452;-53
2021/05/25 13:51:01;;;;;;;6.50;4.40;;;;;;;;;;5054186;28;20405;-53
2021/05/25 13:53:27;;;;;;;4.10;3.80;;;;;;;;;;5053568;28;20401;-53
2021/05/25 13:55:55;;;;;;;3.60;3.30;;;;;;;;;;5054514;28;20498;-53
2021/05/25 13:58:26;;;;;;;4.63;4.07;;;;;;;;;;5053682;28;20421;-53
2021/05/25 14:03:18;;;;;;;6.30;3.70;;;;;;;;;;5053274;28;20409;-53
2021/05/25 14:05:44;;;;;;;3.93;3.63;;;;;;;;;;5053826;28;20419;-53
2021/05/25 14:08:10;;;;;;;4.40;4.00;;;;;;;;;;5053866;28;20464;-53
2021/05/25 14:10:36;;;;;;;4.27;3.90;;;;;;;;;;5053488;28;20792;-53
2021/05/25 14:13:03;;;;;;;6.67;4.57;;;;;;;;;;5053188;28;20409;-53
2021/05/25 14:15:32;;;;;;;3.73;3.40;;;;;;;;;;5053719;28;21024;-53
2021/05/25 14:17:58;;;;;;;5.60;4.00;;;;;;;;;;5052618;28;20424;-53
2021/05/25 14:20:24;;;;;;;4.93;4.53;;;;;;;;;;5053060;28;20394;-53
2021/05/25 14:22:50;;;;;;;8.53;4.60;;;;;;;;;;5052913;28;20425;-53
2021/05/25 14:25:17;;;;;;;5.10;4.23;;;;;;;;;;5052955;28;20413;-53
2021/05/25 14:27:43;;;;;;;6.37;4.77;;;;;;;;;;5053292;28;20426;-53
2021/05/25 14:30:09;;;;;;;4.23;3.83;;;;;;;;;;5053124;28;20842;-53
2021/05/25 14:32:35;;;;;;;3.33;3.00;;;;;;;;;;5053030;28;20398;-53
2021/05/25 14:35:01;;;;;;;3.20;3.00;;;;;;;;;;5051740;28;20507;-53
2021/05/25 14:37:27;;;;;;;3.93;3.37;;;;;;;;;;5051603;28;20921;-53
2021/05/25 14:39:53;;;;;;;3.47;3.07;;;;;;;;;;5052969;28;20957;-53
2021/05/25 14:42:19;;;;;;;3.30;3.10;;;;;;;;;;5052792;28;21135;-53
2021/05/25 14:44:45;;;;;;;3.10;2.80;;;;;;;;;;5052997;28;20424;-53
2021/05/25 14:47:11;;;;;;;3.77;2.80;;;;;;;;;;5052613;28;21067;-53
2021/05/25 14:49:37;;;;;;;5.23;3.40;;;;;;;;;;5052823;28;20401;-52
2021/05/25 14:52:03;;;;;;;2.87;2.40;;;;;;;;;;5052396;28;20442;-53
2021/05/25 14:54:29;;;;;;;7.23;2.87;;;;;;;;;;5052688;28;20413;-53